sensor_id;sensor_type;location;lat;lon;timestamp;pressure;altitude;pressure_sealevel;temperature;humidity
64292;BME280;50628;51.008;13.658;2023-06-10T00:00:58;99562.09;;;18.10;100.00
64292;BME280;50628;51.008;13.658;2023-06-10T00:06:02;99556.09;;;18.02;100.00
64292;BME280;50628;51.008;13.658;2023-06-10T00:11:03;99565.97;;;18.00;100.00
64292;BME280;50628;51.008;13.658;2023-06-10T00:16:05;99563.38;;;17.91;100.00
64292;BME280;50628;51.008;13.658;2023-06-10T00:21:08;99570.53;;;17.83;100.00
64292;BME280;50628;51.008;13.658;2023-06-10T00:26:10;99575.94;;;17.81;100.00
64292;BME280;50628;51.008;13.658;2023-06-10T00:31:12;99583.25;;;17.94;100.00
64292;BME280;50628;51.008;13.658;2023-06-10T00:36:16;99580.81;;;18.15;100.00
64292;BME280;50628;51.008;13.658;2023-06-10T00:41:17;99583.25;;;17.94;100.00
64292;BME280;50628;51.008;13.658;2023-06-10T00:46:20;99582.09;;;17.65;100.00
64292;BME280;50628;51.008;13.658;2023-06-10T00:51:24;99596.78;;;17.60;100.00
64292;BME280;50628;51.008;13.658;2023-06-10T00:56:26;99602.25;;;17.50;100.00
64292;BME280;50628;51.008;13.658;2023-06-10T01:01:29;99608.06;;;17.37;100.00
64292;BME280;50628;51.008;13.658;2023-06-10T01:06:43;99620.25;;;17.30;100.00
64292;BME280;50628;51.008;13.658;2023-06-10T01:11:53;99631.47;;;17.24;100.00
64292;BME280;50628;51.008;13.658;2023-06-10T01:16:56;99635.41;;;17.20;100.00
64292;BME280;50628;51.008;13.658;2023-06-10T01:22:02;99640.72;;;17.12;100.00
64292;BME280;50628;51.008;13.658;2023-06-10T01:27:08;99650.44;;;16.95;100.00
64292;BME280;50628;51.008;13.658;2023-06-10T01:32:17;99655.38;;;16.90;100.00
64292;BME280;50628;51.008;13.658;2023-06-10T01:37:23;99653.53;;;16.65;100.00
64292;BME280;50628;51.008;13.658;2023-06-10T01:42:26;99659.78;;;16.64;100.00
64292;BME280;50628;51.008;13.658;2023-06-10T01:47:31;99653.06;;;16.62;100.00
64292;BME280;50628;51.008;13.658;2023-06-10T01:52:35;99654.53;;;16.56;100.00
64292;BME280;50628;51.008;13.658;2023-06-10T01:57:37;99660.63;;;16.40;100.00
64292;BME280;50628;51.008;13.658;2023-06-10T02:02:39;99663.41;;;16.47;100.00
64292;BME280;50628;51.008;13.658;2023-06-10T02:07:42;99665.69;;;16.50;100.00
64292;BME280;50628;51.008;13.658;2023-06-10T02:12:44;99669.28;;;16.33;100.00
64292;BME280;50628;51.008;13.658;2023-06-10T02:17:46;99682.41;;;16.33;100.00
64292;BME280;50628;51.008;13.658;2023-06-10T02:22:50;99677.00;;;16.26;100.00
64292;BME280;50628;51.008;13.658;2023-06-10T02:27:52;99678.78;;;16.17;100.00
64292;BME280;50628;51.008;13.658;2023-06-10T02:32:54;99681.75;;;16.22;100.00
64292;BME280;50628;51.008;13.658;2023-06-10T02:38:00;99687.66;;;16.16;100.00
64292;BME280;50628;51.008;13.658;2023-06-10T02:43:03;99690.94;;;16.10;100.00
64292;BME280;50628;51.008;13.658;2023-06-10T02:48:06;99689.28;;;16.01;100.00
64292;BME280;50628;51.008;13.658;2023-06-10T02:53:10;99690.22;;;16.00;100.00
64292;BME280;50628;51.008;13.658;2023-06-10T02:58:17;99687.91;;;15.81;100.00
64292;BME280;50628;51.008;13.658;2023-06-10T03:03:19;99681.97;;;15.70;100.00
64292;BME280;50628;51.008;13.658;2023-06-10T03:08:33;99690.25;;;15.66;100.00
64292;BME280;50628;51.008;13.658;2023-06-10T03:13:39;99687.91;;;15.54;100.00
64292;BME280;50628;51.008;13.658;2023-06-10T03:18:44;99692.50;;;15.52;100.00
64292;BME280;50628;51.008;13.658;2023-06-10T03:23:47;99699.34;;;15.45;100.00
64292;BME280;50628;51.008;13.658;2023-06-10T03:28:49;99699.19;;;15.47;100.00
64292;BME280;50628;51.008;13.658;2023-06-10T03:33:53;99697.97;;;15.33;100.00
64292;BME280;50628;51.008;13.658;2023-06-10T03:38:56;99694.56;;;15.41;100.00
64292;BME280;50628;51.008;13.658;2023-06-10T03:43:59;99697.22;;;15.49;100.00
64292;BME280;50628;51.008;13.658;2023-06-10T03:49:02;99702.16;;;15.52;100.00
64292;BME280;50628;51.008;13.658;2023-06-10T03:54:06;99709.88;;;15.53;100.00
64292;BME280;50628;51.008;13.658;2023-06-10T03:59:08;99713.44;;;15.44;100.00
64292;BME280;50628;51.008;13.658;2023-06-10T04:04:11;99713.91;;;15.40;100.00
64292;BME280;50628;51.008;13.658;2023-06-10T04:09:15;99714.09;;;15.46;100.00
64292;BME280;50628;51.008;13.658;2023-06-10T04:14:18;99726.44;;;15.54;100.00
64292;BME280;50628;51.008;13.658;2023-06-10T04:19:21;99721.84;;;15.56;100.00
64292;BME280;50628;51.008;13.658;2023-06-10T04:24:26;99724.16;;;15.85;100.00
64292;BME280;50628;51.008;13.658;2023-06-10T04:29:29;99717.31;;;15.66;100.00
64292;BME280;50628;51.008;13.658;2023-06-10T04:34:32;99713.34;;;15.62;100.00
64292;BME280;50628;51.008;13.658;2023-06-10T04:39:35;99720.75;;;15.67;100.00
64292;BME280;50628;51.008;13.658;2023-06-10T04:44:38;99721.56;;;15.93;100.00
64292;BME280;50628;51.008;13.658;2023-06-10T04:49:41;99717.94;;;15.94;100.00
64292;BME280;50628;51.008;13.658;2023-06-10T04:54:45;99722.28;;;16.12;100.00
64292;BME280;50628;51.008;13.658;2023-06-10T04:59:47;99716.41;;;16.18;100.00
64292;BME280;50628;51.008;13.658;2023-06-10T05:04:48;99706.09;;;16.49;100.00
64292;BME280;50628;51.008;13.658;2023-06-10T05:09:52;99703.66;;;16.72;100.00
64292;BME280;50628;51.008;13.658;2023-06-10T05:14:54;99708.28;;;16.86;100.00
64292;BME280;50628;51.008;13.658;2023-06-10T05:19:55;99709.22;;;17.10;100.00
64292;BME280;50628;51.008;13.658;2023-06-10T05:24:59;99709.16;;;17.43;100.00
64292;BME280;50628;51.008;13.658;2023-06-10T05:30:00;99708.16;;;17.52;100.00
64292;BME280;50628;51.008;13.658;2023-06-10T05:35:03;99710.06;;;17.74;100.00
64292;BME280;50628;51.008;13.658;2023-06-10T05:40:08;99711.38;;;17.70;100.00
64292;BME280;50628;51.008;13.658;2023-06-10T05:45:10;99721.25;;;17.68;100.00
64292;BME280;50628;51.008;13.658;2023-06-10T05:50:12;99721.19;;;17.93;100.00
64292;BME280;50628;51.008;13.658;2023-06-10T05:55:15;99729.25;;;18.00;100.00
64292;BME280;50628;51.008;13.658;2023-06-10T06:00:18;99725.00;;;18.22;100.00
64292;BME280;50628;51.008;13.658;2023-06-10T06:05:20;99715.81;;;18.41;100.00
64292;BME280;50628;51.008;13.658;2023-06-10T06:10:23;99713.06;;;18.57;100.00
64292;BME280;50628;51.008;13.658;2023-06-10T06:15:25;99705.22;;;19.10;100.00
64292;BME280;50628;51.008;13.658;2023-06-10T06:20:27;99705.31;;;19.01;100.00
64292;BME280;50628;51.008;13.658;2023-06-10T06:25:30;99704.09;;;19.42;100.00
64292;BME280;50628;51.008;13.658;2023-06-10T06:30:32;99703.91;;;19.58;100.00
64292;BME280;50628;51.008;13.658;2023-06-10T06:35:34;99711.72;;;19.96;100.00
64292;BME280;50628;51.008;13.658;2023-06-10T06:40:40;99707.81;;;19.92;100.00
64292;BME280;50628;51.008;13.658;2023-06-10T06:45:41;99715.78;;;20.14;100.00
64292;BME280;50628;51.008;13.658;2023-06-10T06:50:43;99711.84;;;20.24;100.00
64292;BME280;50628;51.008;13.658;2023-06-10T06:55:47;99726.09;;;20.08;100.00
64292;BME280;50628;51.008;13.658;2023-06-10T07:00:49;99731.66;;;20.14;100.00
64292;BME280;50628;51.008;13.658;2023-06-10T07:05:50;99743.72;;;20.23;100.00
64292;BME280;50628;51.008;13.658;2023-06-10T07:10:54;99742.53;;;20.25;100.00
64292;BME280;50628;51.008;13.658;2023-06-10T07:15:55;99743.81;;;20.29;100.00
64292;BME280;50628;51.008;13.658;2023-06-10T07:20:57;99746.44;;;20.29;100.00
64292;BME280;50628;51.008;13.658;2023-06-10T07:26:00;99751.16;;;20.70;100.00
64292;BME280;50628;51.008;13.658;2023-06-10T07:31:02;99750.88;;;20.44;100.00
64292;BME280;50628;51.008;13.658;2023-06-10T07:36:05;99758.59;;;20.82;100.00
64292;BME280;50628;51.008;13.658;2023-06-10T07:41:08;99761.75;;;20.34;100.00
64292;BME280;50628;51.008;13.658;2023-06-10T07:46:10;99770.22;;;20.66;100.00
64292;BME280;50628;51.008;13.658;2023-06-10T07:51:12;99770.94;;;20.74;100.00
64292;BME280;50628;51.008;13.658;2023-06-10T07:56:15;99769.38;;;20.80;100.00
64292;BME280;50628;51.008;13.658;2023-06-10T08:01:17;99767.63;;;21.15;100.00
64292;BME280;50628;51.008;13.658;2023-06-10T08:06:19;99777.03;;;21.46;100.00
64292;BME280;50628;51.008;13.658;2023-06-10T08:11:22;99771.44;;;21.34;100.00
64292;BME280;50628;51.008;13.658;2023-06-10T08:16:24;99774.66;;;21.30;100.00
64292;BME280;50628;51.008;13.658;2023-06-10T08:21:26;99783.19;;;21.53;100.00
64292;BME280;50628;51.008;13.658;2023-06-10T08:26:30;99784.94;;;21.74;100.00
64292;BME280;50628;51.008;13.658;2023-06-10T08:31:32;99791.38;;;21.93;100.00
64292;BME280;50628;51.008;13.658;2023-06-10T08:36:34;99785.53;;;22.11;100.00
64292;BME280;50628;51.008;13.658;2023-06-10T08:41:42;99784.19;;;22.22;100.00
64292;BME280;50628;51.008;13.658;2023-06-10T08:46:45;99778.75;;;22.50;100.00
64292;BME280;50628;51.008;13.658;2023-06-10T08:51:49;99772.66;;;22.56;100.00
64292;BME280;50628;51.008;13.658;2023-06-10T08:56:55;99761.22;;;22.62;100.00
64292;BME280;50628;51.008;13.658;2023-06-10T09:01:58;99770.22;;;22.61;100.00
64292;BME280;50628;51.008;13.658;2023-06-10T09:07:00;99768.22;;;22.97;100.00
64292;BME280;50628;51.008;13.658;2023-06-10T09:12:05;99759.66;;;23.08;100.00
64292;BME280;50628;51.008;13.658;2023-06-10T09:17:07;99759.88;;;23.13;100.00
64292;BME280;50628;51.008;13.658;2023-06-10T09:22:10;99759.84;;;23.33;100.00
64292;BME280;50628;51.008;13.658;2023-06-10T09:27:13;99754.16;;;23.36;100.00
64292;BME280;50628;51.008;13.658;2023-06-10T09:32:17;99756.81;;;23.36;100.00
64292;BME280;50628;51.008;13.658;2023-06-10T09:37:22;99751.59;;;23.68;100.00
64292;BME280;50628;51.008;13.658;2023-06-10T09:42:26;99749.13;;;23.86;100.00
64292;BME280;50628;51.008;13.658;2023-06-10T09:47:28;99746.84;;;23.96;100.00
64292;BME280;50628;51.008;13.658;2023-06-10T09:52:30;99760.53;;;24.00;100.00
64292;BME280;50628;51.008;13.658;2023-06-10T09:57:33;99760.34;;;23.95;100.00
64292;BME280;50628;51.008;13.658;2023-06-10T10:02:44;99761.09;;;24.09;100.00
64292;BME280;50628;51.008;13.658;2023-06-10T10:07:47;99758.31;;;24.35;100.00
64292;BME280;50628;51.008;13.658;2023-06-10T10:12:54;99758.69;;;24.77;98.50
64292;BME280;50628;51.008;13.658;2023-06-10T10:18:02;99761.94;;;24.79;100.00
64292;BME280;50628;51.008;13.658;2023-06-10T10:23:08;99754.25;;;25.21;96.82
64292;BME280;50628;51.008;13.658;2023-06-10T10:28:18;99758.25;;;24.80;91.90
64292;BME280;50628;51.008;13.658;2023-06-10T10:33:26;99752.03;;;25.18;90.38
64292;BME280;50628;51.008;13.658;2023-06-10T10:38:33;99756.19;;;24.82;95.77
64292;BME280;50628;51.008;13.658;2023-06-10T10:43:36;99751.63;;;24.65;97.76
64292;BME280;50628;51.008;13.658;2023-06-10T10:48:39;99748.59;;;24.54;98.38
64292;BME280;50628;51.008;13.658;2023-06-10T10:53:41;99748.06;;;24.77;97.28
64292;BME280;50628;51.008;13.658;2023-06-10T10:59:03;99744.03;;;24.61;95.45
64292;BME280;50628;51.008;13.658;2023-06-10T11:04:07;99739.34;;;24.89;97.30
64292;BME280;50628;51.008;13.658;2023-06-10T11:09:27;99738.66;;;24.75;94.49
64292;BME280;50628;51.008;13.658;2023-06-10T11:14:31;99727.16;;;25.86;87.25
64292;BME280;50628;51.008;13.658;2023-06-10T11:19:34;99726.31;;;26.76;86.81
64292;BME280;50628;51.008;13.658;2023-06-10T11:24:37;99712.94;;;26.65;77.75
64292;BME280;50628;51.008;13.658;2023-06-10T11:29:55;99709.22;;;25.94;83.87
64292;BME280;50628;51.008;13.658;2023-06-10T11:34:57;99701.13;;;26.96;77.25
64292;BME280;50628;51.008;13.658;2023-06-10T11:39:59;99690.31;;;26.91;71.21
64292;BME280;50628;51.008;13.658;2023-06-10T11:45:03;99689.63;;;26.84;70.69
64292;BME280;50628;51.008;13.658;2023-06-10T11:50:09;99699.38;;;26.66;73.06
64292;BME280;50628;51.008;13.658;2023-06-10T11:55:11;99691.81;;;27.57;67.81
64292;BME280;50628;51.008;13.658;2023-06-10T12:00:15;99681.47;;;27.14;68.22
64292;BME280;50628;51.008;13.658;2023-06-10T12:05:18;99690.13;;;27.68;67.36
64292;BME280;50628;51.008;13.658;2023-06-10T12:10:20;99686.09;;;28.23;64.05
64292;BME280;50628;51.008;13.658;2023-06-10T12:15:25;99682.81;;;28.50;63.39
64292;BME280;50628;51.008;13.658;2023-06-10T12:20:30;99667.88;;;28.87;60.63
64292;BME280;50628;51.008;13.658;2023-06-10T12:25:33;99658.94;;;28.82;58.07
64292;BME280;50628;51.008;13.658;2023-06-10T12:30:38;99657.91;;;28.83;56.47
64292;BME280;50628;51.008;13.658;2023-06-10T12:35:47;99651.31;;;29.29;55.44
64292;BME280;50628;51.008;13.658;2023-06-10T12:40:49;99650.44;;;27.77;59.09
64292;BME280;50628;51.008;13.658;2023-06-10T12:45:52;99645.78;;;28.97;54.83
64292;BME280;50628;51.008;13.658;2023-06-10T12:50:56;99648.19;;;27.97;55.05
64292;BME280;50628;51.008;13.658;2023-06-10T12:55:58;99651.13;;;27.44;55.50
64292;BME280;50628;51.008;13.658;2023-06-10T13:01:04;99642.59;;;29.17;50.93
64292;BME280;50628;51.008;13.658;2023-06-10T13:06:06;99651.88;;;28.92;47.99
64292;BME280;50628;51.008;13.658;2023-06-10T13:11:08;99647.06;;;29.55;45.87
64292;BME280;50628;51.008;13.658;2023-06-10T13:16:11;99643.44;;;29.01;47.35
64292;BME280;50628;51.008;13.658;2023-06-10T13:21:13;99648.94;;;28.94;47.52
64292;BME280;50628;51.008;13.658;2023-06-10T13:26:15;99650.94;;;29.65;47.20
64292;BME280;50628;51.008;13.658;2023-06-10T13:31:19;99645.09;;;29.68;46.13
64292;BME280;50628;51.008;13.658;2023-06-10T13:36:21;99647.91;;;29.56;47.35
64292;BME280;50628;51.008;13.658;2023-06-10T13:41:23;99650.34;;;30.39;42.86
64292;BME280;50628;51.008;13.658;2023-06-10T13:46:26;99643.66;;;30.41;41.79
64292;BME280;50628;51.008;13.658;2023-06-10T13:51:28;99636.31;;;30.27;39.16
64292;BME280;50628;51.008;13.658;2023-06-10T13:56:30;99635.56;;;30.36;40.06
64292;BME280;50628;51.008;13.658;2023-06-10T14:01:35;99642.72;;;30.26;37.30
64292;BME280;50628;51.008;13.658;2023-06-10T14:06:38;99639.91;;;30.80;37.54
64292;BME280;50628;51.008;13.658;2023-06-10T14:11:40;99642.44;;;31.02;38.08
64292;BME280;50628;51.008;13.658;2023-06-10T14:16:43;99643.63;;;30.79;37.41
64292;BME280;50628;51.008;13.658;2023-06-10T14:21:45;99631.81;;;31.22;38.06
64292;BME280;50628;51.008;13.658;2023-06-10T14:26:47;99632.97;;;31.42;38.45
64292;BME280;50628;51.008;13.658;2023-06-10T14:31:50;99627.22;;;30.33;35.31
64292;BME280;50628;51.008;13.658;2023-06-10T14:36:52;99640.63;;;31.08;35.36
64292;BME280;50628;51.008;13.658;2023-06-10T14:41:54;99641.03;;;30.47;36.26
64292;BME280;50628;51.008;13.658;2023-06-10T14:46:57;99652.78;;;30.40;34.86
64292;BME280;50628;51.008;13.658;2023-06-10T14:51:59;99630.44;;;30.72;35.19
64292;BME280;50628;51.008;13.658;2023-06-10T14:57:01;99647.59;;;30.02;37.23
64292;BME280;50628;51.008;13.658;2023-06-10T15:02:05;99629.81;;;30.55;36.96
64292;BME280;50628;51.008;13.658;2023-06-10T15:07:07;99633.72;;;32.16;35.10
64292;BME280;50628;51.008;13.658;2023-06-10T15:12:09;99631.84;;;31.27;36.36
64292;BME280;50628;51.008;13.658;2023-06-10T15:17:13;99632.31;;;31.19;36.54
64292;BME280;50628;51.008;13.658;2023-06-10T15:22:15;99639.16;;;31.42;37.03
64292;BME280;50628;51.008;13.658;2023-06-10T15:27:17;99630.44;;;30.72;37.63
64292;BME280;50628;51.008;13.658;2023-06-10T15:32:20;99637.94;;;30.65;37.58
64292;BME280;50628;51.008;13.658;2023-06-10T15:37:22;99630.25;;;30.84;38.48
64292;BME280;50628;51.008;13.658;2023-06-10T15:42:24;99630.78;;;30.44;39.70
64292;BME280;50628;51.008;13.658;2023-06-10T15:47:28;99626.09;;;30.66;39.65
64292;BME280;50628;51.008;13.658;2023-06-10T15:52:30;99635.81;;;31.15;38.63
64292;BME280;50628;51.008;13.658;2023-06-10T15:57:31;99625.72;;;30.47;40.21
64292;BME280;50628;51.008;13.658;2023-06-10T16:02:35;99624.84;;;28.55;41.94
64292;BME280;50628;51.008;13.658;2023-06-10T16:07:36;99630.13;;;28.21;43.10
64292;BME280;50628;51.008;13.658;2023-06-10T16:12:40;99639.41;;;29.20;42.64
64292;BME280;50628;51.008;13.658;2023-06-10T16:17:43;99645.19;;;28.56;42.45
64292;BME280;50628;51.008;13.658;2023-06-10T16:22:46;99656.06;;;28.04;42.81
64292;BME280;50628;51.008;13.658;2023-06-10T16:27:47;99655.75;;;27.60;43.51
64292;BME280;50628;51.008;13.658;2023-06-10T16:32:51;99665.19;;;27.51;42.67
64292;BME280;50628;51.008;13.658;2023-06-10T16:37:52;99662.50;;;27.51;42.59
64292;BME280;50628;51.008;13.658;2023-06-10T16:42:54;99654.41;;;27.86;42.40
64292;BME280;50628;51.008;13.658;2023-06-10T16:47:58;99660.22;;;27.43;43.50
64292;BME280;50628;51.008;13.658;2023-06-10T16:53:00;99678.94;;;27.43;45.91
64292;BME280;50628;51.008;13.658;2023-06-10T16:58:01;99670.56;;;27.15;47.23
64292;BME280;50628;51.008;13.658;2023-06-10T17:03:05;99680.00;;;27.18;44.57
64292;BME280;50628;51.008;13.658;2023-06-10T17:08:08;99684.63;;;27.11;46.01
64292;BME280;50628;51.008;13.658;2023-06-10T17:13:10;99684.31;;;27.19;45.17
64292;BME280;50628;51.008;13.658;2023-06-10T17:18:13;99687.81;;;27.19;44.36
64292;BME280;50628;51.008;13.658;2023-06-10T17:23:15;99683.47;;;26.95;44.83
64292;BME280;50628;51.008;13.658;2023-06-10T17:28:17;99684.88;;;27.09;45.70
64292;BME280;50628;51.008;13.658;2023-06-10T17:33:20;99696.91;;;26.65;45.96
64292;BME280;50628;51.008;13.658;2023-06-10T17:38:22;99693.31;;;26.71;46.09
64292;BME280;50628;51.008;13.658;2023-06-10T17:43:24;99697.50;;;26.67;46.60
64292;BME280;50628;51.008;13.658;2023-06-10T17:48:27;99698.44;;;26.30;49.67
64292;BME280;50628;51.008;13.658;2023-06-10T17:53:29;99701.03;;;26.07;50.19
64292;BME280;50628;51.008;13.658;2023-06-10T17:58:31;99707.22;;;25.71;55.73
64292;BME280;50628;51.008;13.658;2023-06-10T18:03:34;99710.78;;;25.46;54.51
64292;BME280;50628;51.008;13.658;2023-06-10T18:08:37;99707.38;;;25.14;59.11
64292;BME280;50628;51.008;13.658;2023-06-10T18:13:39;99710.50;;;24.86;59.84
64292;BME280;50628;51.008;13.658;2023-06-10T18:18:42;99710.66;;;24.91;58.53
64292;BME280;50628;51.008;13.658;2023-06-10T18:23:44;99713.69;;;24.94;58.75
64292;BME280;50628;51.008;13.658;2023-06-10T18:28:46;99710.63;;;24.72;59.31
64292;BME280;50628;51.008;13.658;2023-06-10T18:33:49;99709.22;;;24.70;59.38
64292;BME280;50628;51.008;13.658;2023-06-10T18:38:51;99721.91;;;24.68;60.61
64292;BME280;50628;51.008;13.658;2023-06-10T18:43:53;99724.97;;;24.33;62.21
64292;BME280;50628;51.008;13.658;2023-06-10T18:48:57;99734.38;;;23.90;66.74
64292;BME280;50628;51.008;13.658;2023-06-10T18:53:59;99753.72;;;23.39;78.93
64292;BME280;50628;51.008;13.658;2023-06-10T18:59:02;99750.47;;;23.24;79.50
64292;BME280;50628;51.008;13.658;2023-06-10T19:04:05;99767.41;;;23.03;81.73
64292;BME280;50628;51.008;13.658;2023-06-10T19:09:07;99775.75;;;22.80;88.91
64292;BME280;50628;51.008;13.658;2023-06-10T19:14:10;99780.03;;;22.74;91.56
64292;BME280;50628;51.008;13.658;2023-06-10T19:19:13;99794.03;;;22.41;95.77
64292;BME280;50628;51.008;13.658;2023-06-10T19:24:15;99800.31;;;22.20;99.35
64292;BME280;50628;51.008;13.658;2023-06-10T19:29:17;99803.69;;;22.08;99.40
64292;BME280;50628;51.008;13.658;2023-06-10T19:34:20;99810.91;;;21.92;100.00
64292;BME280;50628;51.008;13.658;2023-06-10T19:39:22;99816.94;;;21.73;100.00
64292;BME280;50628;51.008;13.658;2023-06-10T19:44:24;99817.38;;;21.48;100.00
64292;BME280;50628;51.008;13.658;2023-06-10T19:49:27;99827.47;;;21.38;100.00
64292;BME280;50628;51.008;13.658;2023-06-10T19:54:29;99823.63;;;21.19;100.00
64292;BME280;50628;51.008;13.658;2023-06-10T19:59:31;99820.75;;;21.14;100.00
64292;BME280;50628;51.008;13.658;2023-06-10T20:04:35;99831.03;;;21.02;100.00
64292;BME280;50628;51.008;13.658;2023-06-10T20:09:37;99841.41;;;20.82;100.00
64292;BME280;50628;51.008;13.658;2023-06-10T20:14:39;99840.19;;;20.63;100.00
64292;BME280;50628;51.008;13.658;2023-06-10T20:19:42;99841.22;;;20.32;100.00
64292;BME280;50628;51.008;13.658;2023-06-10T20:24:50;99843.06;;;20.32;100.00
64292;BME280;50628;51.008;13.658;2023-06-10T20:29:52;99854.09;;;20.21;100.00
64292;BME280;50628;51.008;13.658;2023-06-10T20:34:55;99858.56;;;20.20;100.00
64292;BME280;50628;51.008;13.658;2023-06-10T20:39:57;99858.53;;;19.91;100.00
64292;BME280;50628;51.008;13.658;2023-06-10T20:44:59;99866.66;;;19.89;100.00
64292;BME280;50628;51.008;13.658;2023-06-10T20:50:02;99872.88;;;19.58;100.00
64292;BME280;50628;51.008;13.658;2023-06-10T20:55:05;99876.41;;;19.28;100.00
64292;BME280;50628;51.008;13.658;2023-06-10T21:00:08;99881.16;;;19.09;100.00
64292;BME280;50628;51.008;13.658;2023-06-10T21:05:11;99880.28;;;18.94;100.00
64292;BME280;50628;51.008;13.658;2023-06-10T21:10:13;99881.59;;;18.98;100.00
64292;BME280;50628;51.008;13.658;2023-06-10T21:15:16;99892.72;;;18.85;100.00
64292;BME280;50628;51.008;13.658;2023-06-10T21:20:19;99894.94;;;18.96;100.00
64292;BME280;50628;51.008;13.658;2023-06-10T21:25:21;99893.59;;;18.77;100.00
64292;BME280;50628;51.008;13.658;2023-06-10T21:30:23;99900.34;;;18.64;100.00
64292;BME280;50628;51.008;13.658;2023-06-10T21:35:27;99902.06;;;18.48;100.00
64292;BME280;50628;51.008;13.658;2023-06-10T21:40:29;99914.97;;;18.35;100.00
64292;BME280;50628;51.008;13.658;2023-06-10T21:45:30;99910.03;;;18.32;100.00
64292;BME280;50628;51.008;13.658;2023-06-10T21:50:34;99916.66;;;18.28;100.00
64292;BME280;50628;51.008;13.658;2023-06-10T21:55:35;99921.09;;;18.27;100.00
64292;BME280;50628;51.008;13.658;2023-06-10T22:00:37;99924.19;;;18.31;100.00
64292;BME280;50628;51.008;13.658;2023-06-10T22:05:41;99926.38;;;18.11;100.00
64292;BME280;50628;51.008;13.658;2023-06-10T22:10:43;99928.72;;;17.98;100.00
64292;BME280;50628;51.008;13.658;2023-06-10T22:15:45;99928.56;;;17.91;100.00
64292;BME280;50628;51.008;13.658;2023-06-10T22:20:49;99928.91;;;17.88;100.00
64292;BME280;50628;51.008;13.658;2023-06-10T22:25:50;99930.06;;;17.85;100.00
64292;BME280;50628;51.008;13.658;2023-06-10T22:30:52;99924.94;;;18.00;100.00
64292;BME280;50628;51.008;13.658;2023-06-10T22:35:56;99927.75;;;17.74;100.00
64292;BME280;50628;51.008;13.658;2023-06-10T22:40:58;99938.22;;;17.33;100.00
64292;BME280;50628;51.008;13.658;2023-06-10T22:46:00;99931.16;;;17.17;100.00
64292;BME280;50628;51.008;13.658;2023-06-10T22:51:03;99939.31;;;16.98;100.00
64292;BME280;50628;51.008;13.658;2023-06-10T22:56:05;99943.28;;;17.02;100.00
64292;BME280;50628;51.008;13.658;2023-06-10T23:01:06;99941.25;;;16.87;100.00
64292;BME280;50628;51.008;13.658;2023-06-10T23:06:10;99934.69;;;16.83;100.00
64292;BME280;50628;51.008;13.658;2023-06-10T23:11:12;99931.63;;;16.70;100.00
64292;BME280;50628;51.008;13.658;2023-06-10T23:16:13;99934.78;;;16.74;100.00
64292;BME280;50628;51.008;13.658;2023-06-10T23:21:17;99937.88;;;16.69;100.00
64292;BME280;50628;51.008;13.658;2023-06-10T23:26:19;99944.59;;;16.63;100.00
64292;BME280;50628;51.008;13.658;2023-06-10T23:31:21;99941.16;;;16.37;100.00
64292;BME280;50628;51.008;13.658;2023-06-10T23:36:24;99945.56;;;16.28;100.00
64292;BME280;50628;51.008;13.658;2023-06-10T23:41:26;99950.72;;;16.12;100.00
64292;BME280;50628;51.008;13.658;2023-06-10T23:46:28;99954.44;;;15.65;100.00
64292;BME280;50628;51.008;13.658;2023-06-10T23:51:34;99952.09;;;15.62;100.00
64292;BME280;50628;51.008;13.658;2023-06-10T23:56:36;99959.69;;;15.83;100.00
